Time;durP1;ratioP1;P1;durP2;ratioP2;P2;SDS_P1;SDS_P2;PMS_P1;PMS_P2;Temp;Humidity;BMP_temperature;BMP_pressure;BME280_temperature;BME280_humidity;BME280_pressure;Samples;Min_cycle;Max_cycle;Signal;HPM_P1;HPM_P2
2021/05/20 00:02:03;;;;;;;5.07;4.67;;;;;;;11.61;63.48;101691.66;6097095;29;20243;-51
2021/05/20 00:05:23;;;;;;;6.90;5.20;;;;;;;11.56;63.98;101695.13;6096283;29;20336;-47
2021/05/20 00:08:44;;;;;;;4.20;3.80;;;;;;;11.57;63.81;101681.19;6095457;29;20778;-46
2021/05/20 00:12:06;;;;;;;4.53;3.70;;;;;;;11.69;63.25;101686.44;6099469;28;20228;-49
2021/05/20 00:15:26;;;;;;;4.07;3.77;;;;;;;11.54;63.22;101681.22;6102990;28;20750;-48
2021/05/20 00:18:47;;;;;;;4.90;3.90;;;;;;;11.58;63.06;101681.22;6101340;28;20259;-49
2021/05/20 00:22:08;;;;;;;5.37;4.87;;;;;;;11.18;63.95;101673.31;6100967;29;20558;-52
2021/05/20 00:25:28;;;;;;;4.03;3.63;;;;;;;11.45;63.63;101684.66;6100575;29;20236;-44
2021/05/20 00:28:50;;;;;;;5.40;3.93;;;;;;;11.43;63.19;101681.19;6095351;28;22358;-48
2021/05/20 00:32:10;;;;;;;4.00;3.70;;;;;;;11.50;62.93;101685.56;6078229;29;20239;-47
2021/05/20 00:35:31;;;;;;;3.43;3.13;;;;;;;11.50;62.87;101682.09;6103958;29;20232;-49
2021/05/20 00:38:51;;;;;;;3.50;3.20;;;;;;;11.65;62.24;101683.81;6108124;28;20231;-49
2021/05/20 00:42:13;;;;;;;3.80;3.30;;;;;;;11.33;63.34;101682.91;6103385;28;20252;-48
2021/05/20 00:45:34;;;;;;;4.83;3.30;;;;;;;11.29;63.96;101685.53;6094130;29;20310;-49
2021/05/20 00:48:55;;;;;;;5.87;3.50;;;;;;;11.22;63.57;101680.31;6094446;28;20239;-48
2021/05/20 00:52:15;;;;;;;3.63;3.00;;;;;;;11.49;62.78;101695.97;6097109;28;20558;-49
2021/05/20 00:55:36;;;;;;;2.90;2.70;;;;;;;11.51;62.72;101697.72;6104159;29;20240;-47
2021/05/20 00:58:56;;;;;;;2.70;2.50;;;;;;;11.49;62.81;101691.63;6093255;28;20239;-53
2021/05/20 01:02:19;;;;;;;3.20;2.93;;;;;;;11.51;62.55;101692.50;6096437;29;20236;-49
2021/05/20 01:05:41;;;;;;;3.37;2.97;;;;;;;11.54;62.53;101699.47;6092096;29;20658;-49
2021/05/20 01:09:01;;;;;;;2.80;2.27;;;;;;;11.57;62.09;101694.25;6094652;28;20236;-53
2021/05/20 01:12:21;;;;;;;3.77;2.83;;;;;;;11.57;62.65;101699.47;6102283;28;20617;-49
2021/05/20 01:15:42;;;;;;;3.33;3.03;;;;;;;11.42;63.01;101705.56;6104587;29;20243;-53
2021/05/20 01:19:04;;;;;;;2.77;2.57;;;;;;;11.50;62.66;101709.03;6104153;29;20224;-51
2021/05/20 01:22:25;;;;;;;3.10;2.70;;;;;;;11.49;62.24;101711.63;6104296;28;20409;-47
2021/05/20 01:25:47;;;;;;;2.53;2.27;;;;;;;11.70;61.47;101714.25;6112044;29;20244;-45
2021/05/20 01:29:08;;;;;;;3.57;2.50;;;;;;;11.85;61.13;101722.97;6099680;29;20642;-53
2021/05/20 01:32:28;;;;;;;3.20;2.53;;;;;;;11.79;61.47;101726.47;6102947;29;20322;-45
2021/05/20 01:35:49;;;;;;;3.13;2.50;;;;;;;11.91;60.94;101731.69;6087660;29;20237;-48
2021/05/20 01:39:10;;;;;;;3.30;2.70;;;;;;;11.80;61.16;101734.25;6098720;29;20236;-50
2021/05/20 01:42:30;;;;;;;3.30;3.00;;;;;;;11.99;60.58;101734.31;6104280;29;20686;-50
2021/05/20 01:45:56;;;;;;;3.30;3.00;;;;;;;12.11;60.64;101733.44;6099360;29;20514;-49
2021/05/20 01:49:16;;;;;;;4.10;2.60;;;;;;;12.02;60.22;101734.31;6099423;29;20228;-53
2021/05/20 01:52:37;;;;;;;3.00;2.50;;;;;;;12.03;60.49;101736.03;6108985;29;20240;-48
2021/05/20 01:55:59;;;;;;;2.37;2.17;;;;;;;11.81;60.96;101746.47;6108330;29;20255;-47
2021/05/20 01:59:19;;;;;;;3.47;2.50;;;;;;;11.84;60.48;101737.75;6101507;29;20244;-48
2021/05/20 02:02:40;;;;;;;2.57;2.37;;;;;;;11.81;60.48;101745.59;6098867;28;20263;-52
2021/05/20 02:06:02;;;;;;;2.77;2.50;;;;;;;12.07;59.57;101742.13;6112002;29;20594;-47
2021/05/20 02:09:22;;;;;;;2.60;2.30;;;;;;;12.16;59.69;101732.56;6099868;29;20231;-48
2021/05/20 02:12:43;;;;;;;3.33;2.30;;;;;;;12.05;59.20;101736.91;6104551;28;20232;-49
2021/05/20 02:16:05;;;;;;;2.93;2.23;;;;;;;12.09;59.22;101732.56;6110711;28;20228;-52
2021/05/20 02:19:25;;;;;;;3.40;3.10;;;;;;;12.24;58.53;101723.84;6098517;29;20228;-46
2021/05/20 02:22:46;;;;;;;3.07;2.47;;;;;;;12.00;58.95;101720.41;6107032;28;20232;-47
2021/05/20 02:26:06;;;;;;;3.27;2.97;;;;;;;12.09;59.01;101729.97;6102214;28;20235;-47
2021/05/20 02:29:28;;;;;;;3.20;2.57;;;;;;;11.79;59.60;101726.47;6088508;29;20244;-49
2021/05/20 02:32:48;;;;;;;3.50;2.40;;;;;;;11.97;58.90;101731.69;6102028;29;20613;-51
2021/05/20 02:36:09;;;;;;;2.77;2.53;;;;;;;11.77;59.49;101729.06;6101782;29;20509;-48
2021/05/20 02:39:29;;;;;;;3.60;2.90;;;;;;;11.70;59.56;101726.44;6091001;29;20615;-52
2021/05/20 02:42:50;;;;;;;3.10;2.90;;;;;;;11.75;59.62;101729.94;6108705;29;20232;-46
2021/05/20 02:46:12;;;;;;;2.27;2.10;;;;;;;11.72;59.90;101727.31;6097718;28;20231;-52
2021/05/20 02:49:32;;;;;;;3.20;2.90;;;;;;;12.06;58.35;101730.84;6106840;29;20563;-50
2021/05/20 02:52:53;;;;;;;3.40;3.10;;;;;;;11.85;59.07;101741.25;6100333;29;20266;-47
2021/05/20 02:56:14;;;;;;;4.27;3.50;;;;;;;12.13;58.29;101736.91;6102321;28;20235;-53
2021/05/20 02:59:36;;;;;;;3.40;2.90;;;;;;;11.94;58.55;101742.16;6096405;28;20251;-49
2021/05/20 03:02:57;;;;;;;3.70;2.50;;;;;;;12.00;58.07;101733.47;6113577;29;20240;-47
2021/05/20 03:06:17;;;;;;;2.80;2.60;;;;;;;12.22;57.58;101736.91;6107871;28;20263;-47
2021/05/20 03:09:40;;;;;;;4.30;2.80;;;;;;;12.16;57.61;101736.91;6108076;29;20625;-51
2021/05/20 03:13:00;;;;;;;3.63;3.33;;;;;;;12.04;58.05;101742.13;6084461;28;20262;-51
2021/05/20 03:16:21;;;;;;;3.07;2.83;;;;;;;12.09;58.27;101737.78;6108018;29;20235;-52
2021/05/20 03:19:42;;;;;;;3.17;2.97;;;;;;;11.94;59.17;101731.72;6113395;28;20471;-52
2021/05/20 03:23:03;;;;;;;6.00;4.00;;;;;;;11.95;59.23;101733.44;6094708;28;20236;-51
2021/05/20 03:26:23;;;;;;;6.23;3.83;;;;;;;11.75;60.07;101735.16;6100681;28;20282;-47
2021/05/20 03:29:43;;;;;;;5.50;4.47;;;;;;;11.59;60.86;101739.47;6101906;29;20269;-46
2021/05/20 03:33:04;;;;;;;4.00;3.70;;;;;;;11.27;62.28;101739.41;6114420;28;20235;-49
2021/05/20 03:36:25;;;;;;;4.80;4.30;;;;;;;11.52;62.15;101742.94;6094067;28;20239;-50
2021/05/20 03:39:46;;;;;;;4.73;4.37;;;;;;;11.30;63.33;101744.63;6103474;29;20255;-53
2021/05/20 03:43:06;;;;;;;5.23;4.83;;;;;;;11.67;62.65;101747.31;6099503;29;20243;-47
2021/05/20 03:46:27;;;;;;;6.63;5.33;;;;;;;11.56;62.50;101742.09;6081667;29;20584;-53
2021/05/20 03:49:47;;;;;;;5.93;5.40;;;;;;;11.62;62.83;101742.09;6099522;29;20235;-47
2021/05/20 03:53:08;;;;;;;5.70;5.20;;;;;;;11.36;63.21;101749.84;6091968;28;20227;-47
2021/05/20 03:56:29;;;;;;;6.27;5.73;;;;;;;11.36;63.72;101750.75;6101367;29;21798;-47
2021/05/20 03:59:50;;;;;;;6.27;5.77;;;;;;;11.38;63.79;101745.50;6103622;28;20615;-48
2021/05/20 04:03:10;;;;;;;7.27;6.63;;;;;;;10.96;65.44;101747.13;6105321;29;20854;-49
2021/05/20 04:06:30;;;;;;;7.30;6.70;;;;;;;10.61;67.22;101747.81;6102933;28;20232;-52
2021/05/20 04:09:52;;;;;;;7.60;6.97;;;;;;;11.15;64.93;101735.91;6107248;29;20239;-51
2021/05/20 04:13:13;;;;;;;6.37;5.87;;;;;;;11.52;63.87;101733.38;6096074;29;20228;-55
2021/05/20 04:16:33;;;;;;;7.57;6.83;;;;;;;11.70;63.18;101736.88;6095023;29;20551;-52
2021/05/20 04:19:54;;;;;;;7.70;6.90;;;;;;;11.87;62.77;101737.75;6104096;29;20232;-50
2021/05/20 04:23:15;;;;;;;7.03;6.50;;;;;;;11.99;62.39;101745.63;6107009;28;20232;-48
2021/05/20 04:26:36;;;;;;;7.00;6.43;;;;;;;11.74;63.01;101747.31;6111870;29;20244;-49
2021/05/20 04:29:57;;;;;;;7.03;6.33;;;;;;;11.12;65.17;101748.91;6111506;29;20613;-52
2021/05/20 04:33:18;;;;;;;5.83;5.27;;;;;;;11.88;62.88;101752.53;6105754;29;20326;-51
2021/05/20 04:36:39;;;;;;;9.10;6.97;;;;;;;11.83;62.39;101749.94;6112730;29;20239;-52
2021/05/20 04:39:59;;;;;;;7.63;6.80;;;;;;;11.77;62.31;101754.28;6112201;28;20227;-48
2021/05/20 04:43:20;;;;;;;7.83;6.90;;;;;;;12.18;61.61;101764.75;6116430;29;20346;-49
2021/05/20 04:46:41;;;;;;;7.80;7.10;;;;;;;12.16;61.29;101774.34;6112588;28;20244;-51
2021/05/20 04:50:01;;;;;;;8.30;7.57;;;;;;;11.87;62.30;101776.91;6094673;29;20240;-53
2021/05/20 04:53:23;;;;;;;9.53;8.53;;;;;;;11.93;61.98;101771.72;6114545;29;20239;-50
2021/05/20 04:56:43;;;;;;;8.43;7.73;;;;;;;11.82;62.38;101773.41;6094164;29;20232;-52
2021/05/20 05:00:07;;;;;;;8.50;7.80;;;;;;;11.77;62.31;101781.25;6114553;28;20235;-49
2021/05/20 05:03:27;;;;;;;7.90;7.20;;;;;;;11.86;61.69;101777.78;6108280;29;20497;-50
2021/05/20 05:06:48;;;;;;;9.57;8.67;;;;;;;11.49;63.37;101782.91;6111141;29;20342;-51
2021/05/20 05:10:10;;;;;;;8.40;7.63;;;;;;;12.04;62.17;101783.91;6113124;29;20248;-48
2021/05/20 05:13:30;;;;;;;9.50;8.70;;;;;;;11.69;62.79;101785.59;6116653;29;20231;-51
2021/05/20 05:16:54;;;;;;;9.97;8.93;;;;;;;11.99;61.79;101781.31;6113269;29;20261;-51
2021/05/20 05:20:14;;;;;;;9.63;8.73;;;;;;;12.06;61.72;101782.16;6117416;28;20235;-52
2021/05/20 05:23:34;;;;;;;11.37;10.00;;;;;;;11.46;63.47;101779.44;6109038;29;20239;-50
2021/05/20 05:26:55;;;;;;;9.10;8.40;;;;;;;11.91;62.77;101777.81;6100934;28;20525;-48
2021/05/20 05:30:17;;;;;;;11.00;9.47;;;;;;;12.09;61.88;101775.19;6111143;28;20241;-50
2021/05/20 05:33:38;;;;;;;9.77;8.80;;;;;;;11.95;62.08;101783.03;6113090;28;20240;-52
2021/05/20 05:37:01;;;;;;;9.70;8.90;;;;;;;12.16;61.81;101790.00;6114787;29;20231;-53
2021/05/20 05:40:22;;;;;;;9.33;8.33;;;;;;;12.08;62.16;101793.47;6109916;29;20231;-52
2021/05/20 05:43:42;;;;;;;10.60;9.70;;;;;;;12.29;62.42;101790.00;6095626;29;20689;-52
2021/05/20 05:47:03;;;;;;;11.07;10.07;;;;;;;12.21;63.05;101795.22;6112058;28;20232;-50
2021/05/20 05:50:25;;;;;;;11.27;10.17;;;;;;;11.79;64.00;101792.56;6117270;28;20235;-51
2021/05/20 05:53:45;;;;;;;12.30;11.10;;;;;;;11.63;64.44;101794.28;6103452;29;20236;-48
2021/05/20 05:57:06;;;;;;;10.40;9.07;;;;;;;12.34;63.31;101796.09;6107133;29;20560;-49
2021/05/20 06:00:27;;;;;;;10.13;9.23;;;;;;;12.62;61.39;101796.94;6097303;28;20256;-48
2021/05/20 06:03:47;;;;;;;12.00;11.00;;;;;;;12.36;61.50;101796.97;6099559;29;20917;-54
2021/05/20 06:07:08;;;;;;;12.07;11.10;;;;;;;12.48;61.53;101801.31;6088548;28;20233;-53
2021/05/20 06:10:29;;;;;;;10.17;9.27;;;;;;;12.10;63.34;101790.00;6097935;28;20715;-51
2021/05/20 06:13:50;;;;;;;9.70;8.70;;;;;;;12.82;61.07;101796.03;6093417;29;20235;-53
2021/05/20 06:17:10;;;;;;;12.60;9.73;;;;;;;12.33;62.17;101797.84;6100793;28;20851;-47
2021/05/20 06:20:31;;;;;;;10.20;9.20;;;;;;;12.53;62.06;101794.34;6097154;28;20235;-49
2021/05/20 06:23:52;;;;;;;13.63;9.13;;;;;;;12.68;61.65;101804.75;6106912;28;20260;-50
2021/05/20 06:27:12;;;;;;;10.57;8.57;;;;;;;12.88;60.65;101809.94;6104555;28;20247;-48
2021/05/20 06:30:33;;;;;;;10.30;9.30;;;;;;;13.20;59.48;101814.16;6104974;28;20239;-47
2021/05/20 06:33:53;;;;;;;9.70;8.80;;;;;;;12.87;60.33;101817.78;6115011;28;20322;-49
2021/05/20 06:37:14;;;;;;;8.63;7.83;;;;;;;13.00;60.31;101812.50;6106875;28;20267;-52
2021/05/20 06:40:35;;;;;;;9.03;7.93;;;;;;;13.35;59.60;101802.81;6096902;28;20239;-48
2021/05/20 06:43:56;;;;;;;8.73;7.83;;;;;;;13.33;58.93;101808.03;6117039;29;20247;-47
2021/05/20 06:47:17;;;;;;;11.03;7.37;;;;;;;13.28;58.54;101806.28;6098526;29;20622;-52
2021/05/20 06:50:37;;;;;;;6.93;6.30;;;;;;;13.55;57.46;101810.53;6098217;28;20244;-51
2021/05/20 06:53:58;;;;;;;7.13;6.60;;;;;;;13.72;57.09;101807.84;6104331;29;20232;-48
2021/05/20 06:57:24;;;;;;;7.93;7.10;;;;;;;13.56;57.37;101800.06;6106142;29;20430;-50
2021/05/20 07:00:44;;;;;;;5.70;5.27;;;;;;;13.67;56.35;101809.63;6097357;29;20244;-52
2021/05/20 07:04:05;;;;;;;7.07;6.30;;;;;;;13.33;57.73;101809.81;6099682;28;20235;-51
2021/05/20 07:07:26;;;;;;;5.80;5.20;;;;;;;14.11;55.45;101805.81;6113697;28;20239;-48
2021/05/20 07:10:47;;;;;;;8.37;4.73;;;;;;;13.86;56.48;101811.25;6094419;29;20739;-49
2021/05/20 07:14:08;;;;;;;5.87;4.80;;;;;;;14.16;55.13;101809.28;6102679;29;20692;-54
2021/05/20 07:17:29;;;;;;;6.93;5.07;;;;;;;14.50;53.78;101808.97;6082350;29;20267;-50
2021/05/20 07:20:49;;;;;;;5.10;4.63;;;;;;;14.37;53.09;101811.72;6089742;28;20255;-48
2021/05/20 07:24:10;;;;;;;4.83;4.37;;;;;;;13.93;54.07;101812.94;6100194;29;20248;-54
2021/05/20 07:27:31;;;;;;;5.03;4.53;;;;;;;13.42;55.27;101809.75;6076951;29;20240;-52
2021/05/20 07:30:52;;;;;;;5.47;4.00;;;;;;;14.51;52.12;101814.19;6081934;29;20231;-48
2021/05/20 07:34:13;;;;;;;4.23;3.83;;;;;;;14.48;51.11;101811.63;6088131;28;20243;-47
2021/05/20 07:37:34;;;;;;;5.00;3.87;;;;;;;14.76;51.36;101806.97;6072202;29;20717;-51
2021/05/20 07:40:54;;;;;;;4.90;4.53;;;;;;;15.21;50.24;101809.09;6068631;28;20535;-51
2021/05/20 07:44:15;;;;;;;5.63;4.63;;;;;;;14.93;51.03;101803.31;6094178;29;20232;-49
2021/05/20 07:47:36;;;;;;;5.37;4.80;;;;;;;14.33;53.92;101810.00;6100999;29;20240;-53
2021/05/20 07:50:57;;;;;;;5.73;5.23;;;;;;;14.40;53.71;101808.19;6087024;28;20308;-49
2021/05/20 07:54:18;;;;;;;3.80;3.50;;;;;;;14.36;52.02;101817.84;6059973;28;20239;-48
2021/05/20 07:57:38;;;;;;;4.23;3.67;;;;;;;15.63;50.16;101808.56;6066337;29;20244;-49
2021/05/20 08:01:01;;;;;;;6.53;3.87;;;;;;;15.06;49.55;101810.16;6079297;29;20228;-50
2021/05/20 08:04:26;;;;;;;4.30;3.90;;;;;;;15.18;50.21;101809.16;6077208;29;20805;-52
2021/05/20 08:07:51;;;;;;;6.33;3.90;;;;;;;14.51;51.32;101815.97;6086018;29;20268;-47
2021/05/20 08:11:11;;;;;;;6.03;3.60;;;;;;;14.69;51.07;101810.53;6097979;28;20374;-50
2021/05/20 08:14:32;;;;;;;4.97;3.60;;;;;;;14.41;52.58;101809.06;6080471;29;20236;-51
2021/05/20 08:17:53;;;;;;;4.07;3.77;;;;;;;15.14;50.88;101808.31;6086991;29;20252;-55
2021/05/20 08:21:15;;;;;;;4.60;4.20;;;;;;;14.02;52.52;101805.91;6051596;28;20623;-51
2021/05/20 08:24:36;;;;;;;4.90;4.03;;;;;;;14.27;52.41;101796.06;6076480;29;20229;-49
2021/05/20 08:27:56;;;;;;;5.60;3.43;;;;;;;14.99;49.79;101792.75;6080815;28;20235;-50
2021/05/20 08:31:17;;;;;;;3.77;3.33;;;;;;;15.69;49.02;101797.94;6069649;29;20240;-52
2021/05/20 08:34:37;;;;;;;5.50;3.60;;;;;;;15.29;48.45;101788.00;6084062;29;20523;-52
2021/05/20 08:37:59;;;;;;;5.97;3.83;;;;;;;15.85;47.25;101794.22;6096879;29;20244;-49
2021/05/20 08:41:21;;;;;;;4.23;3.03;;;;;;;14.17;50.09;101795.28;6071365;29;20229;-49
2021/05/20 08:44:42;;;;;;;4.47;2.80;;;;;;;14.14;49.89;101801.41;6074630;29;20247;-49
2021/05/20 08:48:02;;;;;;;3.30;3.00;;;;;;;14.74;49.26;101792.16;6063537;29;20252;-50
2021/05/20 08:51:23;;;;;;;3.57;3.37;;;;;;;15.11;48.85;101782.09;6067909;28;20322;-50
2021/05/20 08:54:44;;;;;;;3.20;2.90;;;;;;;14.92;49.42;101780.59;6089331;29;20323;-48
2021/05/20 08:58:08;;;;;;;3.60;3.30;;;;;;;15.03;49.11;101789.22;6079326;29;20232;-45
2021/05/20 09:01:33;;;;;;;3.47;3.17;;;;;;;14.35;49.65;101787.28;6070232;29;20862;-47
2021/05/20 09:05:02;;;;;;;2.57;2.37;;;;;;;15.62;47.50;101778.78;6074148;28;20248;-49
2021/05/20 09:08:31;;;;;;;3.40;3.10;;;;;;;16.17;46.21;101776.19;6070631;29;20263;-47
2021/05/20 09:11:54;;;;;;;2.47;2.27;;;;;;;15.08;47.95;101776.91;6071834;29;20315;-50
2021/05/20 09:15:23;;;;;;;5.97;4.27;;;;;;;15.16;48.60;101771.56;6097600;29;20456;-52
2021/05/20 09:18:44;;;;;;;3.33;2.40;;;;;;;16.63;43.78;101768.34;6079757;29;20235;-48
2021/05/20 09:22:06;;;;;;;4.67;2.80;;;;;;;16.39;43.72;101771.44;6097749;29;20236;-45
2021/05/20 09:25:30;;;;;;;4.43;2.70;;;;;;;16.27;43.78;101772.53;6095202;29;22306;-51
2021/05/20 09:28:52;;;;;;;3.10;2.77;;;;;;;15.26;47.80;101772.31;6099173;29;20223;-49
2021/05/20 09:32:13;;;;;;;4.13;3.60;;;;;;;15.42;47.61;101765.94;6093277;28;20359;-48
2021/05/20 09:35:36;;;;;;;5.87;3.03;;;;;;;14.36;50.74;101770.69;6101397;28;20550;-48
2021/05/20 09:39:09;;;;;;;5.13;2.90;;;;;;;15.34;48.41;101771.31;6085495;29;20246;-49
2021/05/20 09:42:30;;;;;;;4.93;3.37;;;;;;;14.48;49.62;101774.94;6074225;29;20290;-48
2021/05/20 09:45:53;;;;;;;2.97;2.70;;;;;;;15.07;48.35;101772.53;6088782;28;20232;-47
2021/05/20 09:49:13;;;;;;;4.17;2.53;;;;;;;15.32;47.41;101772.22;6094277;28;20336;-49
2021/05/20 09:52:35;;;;;;;4.63;2.90;;;;;;;14.50;49.57;101769.66;6088171;29;20669;-48
2021/05/20 09:55:57;;;;;;;3.13;2.77;;;;;;;15.16;49.03;101769.81;6080797;29;20964;-50
2021/05/20 09:59:30;;;;;;;3.43;2.50;;;;;;;15.27;49.42;101776.66;6077117;29;20236;-51
2021/05/20 10:03:03;;;;;;;4.63;3.00;;;;;;;14.96;51.59;101777.03;6090378;29;20228;-50
2021/05/20 10:06:38;;;;;;;3.63;3.33;;;;;;;15.06;51.14;101768.19;6097707;28;20243;-51
2021/05/20 10:09:59;;;;;;;3.73;3.03;;;;;;;15.35;51.84;101764.28;6071098;29;20241;-47
2021/05/20 10:13:23;;;;;;;3.47;2.97;;;;;;;16.19;50.10;101769.16;6073506;29;20235;-52
2021/05/20 10:16:44;;;;;;;4.40;4.00;;;;;;;16.86;48.14;101761.81;6088579;29;20244;-49
2021/05/20 10:20:08;;;;;;;4.47;3.40;;;;;;;16.87;47.61;101747.78;6087740;29;20627;-49
2021/05/20 10:23:29;;;;;;;7.47;3.97;;;;;;;16.73;46.03;101762.03;6077393;29;20240;-47
2021/05/20 10:26:50;;;;;;;3.07;2.77;;;;;;;15.92;47.09;101745.97;6086189;28;20611;-49
2021/05/20 10:30:13;;;;;;;3.93;3.00;;;;;;;15.34;47.63;101757.31;6082722;28;20256;-49
2021/05/20 10:33:34;;;;;;;3.43;2.70;;;;;;;15.66;49.02;101758.59;6086425;28;20644;-51
2021/05/20 10:36:59;;;;;;;4.70;3.30;;;;;;;16.44;46.93;101749.44;6094174;29;20233;-50
2021/05/20 10:40:29;;;;;;;2.90;2.40;;;;;;;17.70;44.02;101746.78;6067169;29;20255;-52
2021/05/20 10:44:07;;;;;;;2.93;2.67;;;;;;;19.13;41.40;101742.09;6087068;29;20240;-51
2021/05/20 10:47:27;;;;;;;3.03;2.83;;;;;;;18.27;41.87;101737.47;6070962;29;20268;-46
2021/05/20 10:51:14;;;;;;;3.37;2.57;;;;;;;17.25;42.07;101741.69;6066476;29;20622;-52
2021/05/20 10:54:59;;;;;;;3.33;3.03;;;;;;;17.27;43.21;101731.09;6044181;29;20663;-50
2021/05/20 10:58:29;;;;;;;3.33;3.00;;;;;;;17.37;42.80;101727.38;6085529;29;20851;-47
2021/05/20 11:01:49;;;;;;;4.77;3.20;;;;;;;17.02;43.57;101730.78;6067209;28;20232;-54
2021/05/20 11:05:54;;;;;;;4.60;3.40;;;;;;;17.64;46.04;101722.34;6087214;28;20226;-52
2021/05/20 11:09:14;;;;;;;4.63;2.40;;;;;;;17.70;43.67;101715.19;6086120;29;20240;-49
2021/05/20 11:12:58;;;;;;;4.83;2.47;;;;;;;17.90;44.49;101712.06;6072748;29;20257;-51
2021/05/20 11:16:19;;;;;;;5.73;2.50;;;;;;;17.82;44.35;101716.63;6071061;29;20237;-51
2021/05/20 11:19:40;;;;;;;3.33;2.57;;;;;;;17.40;44.56;101716.75;6073857;29;20235;-47
2021/05/20 11:23:29;;;;;;;4.10;3.40;;;;;;;17.45;45.41;101719.31;6090535;29;20766;-47
2021/05/20 11:26:51;;;;;;;4.30;3.33;;;;;;;17.06;46.02;101716.66;6083775;29;20263;-50
2021/05/20 11:30:15;;;;;;;3.50;3.20;;;;;;;17.56;47.15;101719.03;6070703;29;20236;-49
2021/05/20 11:33:43;;;;;;;7.60;3.33;;;;;;;18.25;45.66;101712.91;6081516;28;20251;-53
2021/05/20 11:37:04;;;;;;;3.00;2.80;;;;;;;18.94;44.98;101718.06;6070973;29;20239;-47
2021/05/20 11:40:26;;;;;;;5.93;4.60;;;;;;;18.80;45.46;101704.38;6084421;28;22659;-51
2021/05/20 11:43:46;;;;;;;5.03;4.60;;;;;;;18.11;46.20;101707.16;6104226;29;20228;-52
2021/05/20 11:47:09;;;;;;;7.57;6.73;;;;;;;17.56;47.33;101705.88;6082262;28;20242;-52
2021/05/20 11:50:31;;;;;;;5.33;4.93;;;;;;;17.31;47.88;101698.53;6083404;28;20327;-54
2021/05/20 11:54:04;;;;;;;5.20;4.70;;;;;;;17.88;46.03;101699.84;6091606;29;20236;-53
2021/05/20 11:57:24;;;;;;;4.70;4.30;;;;;;;18.03;46.05;101694.19;6086823;28;20323;-50
2021/05/20 12:00:45;;;;;;;4.70;4.32;;;;;;;18.38;44.56;101680.94;6091446;29;20243;-49
2021/05/20 12:04:07;;;;;;;5.03;4.20;;;;;;;18.61;42.98;101683.81;6086057;29;20597;-48
2021/05/20 12:07:28;;;;;;;4.47;4.18;;;;;;;18.40;42.78;101672.09;6090695;28;20224;-46
2021/05/20 12:10:51;;;;;;;4.80;4.25;;;;;;;18.58;43.22;101668.06;6074811;29;20630;-51
2021/05/20 12:14:25;;;;;;;5.57;5.13;;;;;;;18.91;42.44;101669.78;6070257;29;20236;-48
2021/05/20 12:17:47;;;;;;;4.40;4.00;;;;;;;19.07;41.91;101666.59;6082861;29;20232;-51
2021/05/20 12:21:10;;;;;;;5.28;3.85;;;;;;;19.88;40.78;101658.75;6104288;29;20224;-50
2021/05/20 12:24:35;;;;;;;4.63;4.27;;;;;;;19.31;40.43;101664.13;6106366;29;20243;-52
2021/05/20 12:27:57;;;;;;;4.28;3.97;;;;;;;18.99;41.61;101660.69;6081790;29;20264;-53
2021/05/20 12:31:18;;;;;;;5.45;3.40;;;;;;;18.76;41.30;101665.78;6092629;29;20248;-53
2021/05/20 12:34:39;;;;;;;4.40;4.00;;;;;;;17.13;45.35;101687.53;6087231;29;20232;-49
2021/05/20 12:38:06;;;;;;;2.20;2.00;;;;;;;15.96;48.63;101698.63;6092254;29;20240;-50
2021/05/20 12:41:36;;;;;;;4.97;2.33;;;;;;;15.41;51.25;101702.97;6080521;29;20248;-51
2021/05/20 12:45:00;;;;;;;2.67;2.47;;;;;;;15.43;52.76;101703.81;6100506;28;20318;-50
2021/05/20 12:48:23;;;;;;;4.00;3.20;;;;;;;14.86;55.99;101704.63;6097919;29;20244;-49
2021/05/20 12:51:55;;;;;;;5.27;3.57;;;;;;;14.70;57.64;101701.31;6096819;28;20240;-52
2021/05/20 12:55:17;;;;;;;2.83;2.57;;;;;;;14.34;58.16;101706.91;6093378;29;20280;-46
2021/05/20 12:58:48;;;;;;;2.70;2.30;;;;;;;14.28;58.47;101706.97;6079440;29;20232;-52
2021/05/20 13:02:12;;;;;;;3.23;2.90;;;;;;;14.20;59.65;101700.97;6110829;29;20243;-54
2021/05/20 13:05:45;;;;;;;2.40;1.93;;;;;;;14.56;57.85;101693.59;6109598;28;20763;-51
2021/05/20 13:09:07;;;;;;;2.40;2.20;;;;;;;14.45;58.31;101687.59;6101434;28;20788;-53
2021/05/20 13:12:41;;;;;;;3.53;2.13;;;;;;;14.77;58.21;101681.97;6084848;29;20236;-51
2021/05/20 13:16:11;;;;;;;2.53;2.33;;;;;;;14.87;57.39;101677.50;6091187;29;20248;-53
2021/05/20 13:19:57;;;;;;;2.37;2.10;;;;;;;15.24;56.41;101671.75;6077950;29;20276;-51
2021/05/20 13:23:28;;;;;;;2.03;1.50;;;;;;;15.66;55.39;101670.19;6074980;29;20236;-50
2021/05/20 13:26:48;;;;;;;3.43;2.60;;;;;;;15.75;54.25;101674.47;6072112;29;20350;-51
2021/05/20 13:30:14;;;;;;;2.20;2.00;;;;;;;16.14;54.57;101666.75;6100223;29;20318;-51
2021/05/20 13:33:36;;;;;;;2.23;2.03;;;;;;;17.23;51.48;101642.59;6087138;28;20595;-53
2021/05/20 13:36:57;;;;;;;2.57;2.07;;;;;;;20.67;43.78;101630.34;6083357;29;20232;-48
2021/05/20 13:40:21;;;;;;;2.43;1.67;;;;;;;23.06;38.44;101626.25;6102413;28;20232;-48
2021/05/20 13:43:41;;;;;;;2.22;2.03;;;;;;;22.76;37.40;101616.09;6083579;28;20236;-54
2021/05/20 13:47:02;;;;;;;2.90;1.75;;;;;;;24.59;34.15;101601.47;6089269;29;20354;-51
2021/05/20 13:50:24;;;;;;;2.63;2.42;;;;;;;24.75;34.78;101604.13;6095200;29;20318;-50
2021/05/20 13:53:47;;;;;;;5.07;2.00;;;;;;;24.26;34.74;101589.06;6097074;29;20247;-47
2021/05/20 13:57:08;;;;;;;2.35;1.80;;;;;;;24.01;35.42;101592.19;6098551;29;20228;-53
2021/05/20 14:00:31;;;;;;;2.03;1.92;;;;;;;22.84;33.53;101592.72;6079207;29;20236;-49
2021/05/20 14:04:02;;;;;;;3.33;2.65;;;;;;;22.95;33.96;101593.06;6096518;29;20232;-53
2021/05/20 14:07:22;;;;;;;2.22;2.03;;;;;;;22.80;35.73;101588.50;6080090;28;20271;-49
2021/05/20 14:10:43;;;;;;;6.80;2.10;;;;;;;23.51;34.39;101582.34;6074109;29;20346;-49
2021/05/20 14:14:04;;;;;;;2.08;1.88;;;;;;;23.18;35.90;101577.81;6102412;29;20613;-49
2021/05/20 14:17:24;;;;;;;3.10;2.72;;;;;;;23.05;35.15;101582.00;6106804;28;20625;-54
2021/05/20 14:20:45;;;;;;;2.75;2.40;;;;;;;21.33;36.77;101572.94;6080162;28;20508;-50
2021/05/20 14:24:07;;;;;;;2.63;2.40;;;;;;;21.78;37.11;101569.25;6083715;28;20285;-51
2021/05/20 14:27:28;;;;;;;1.85;1.73;;;;;;;21.47;36.69;101568.88;6076143;29;20268;-52
2021/05/20 14:30:49;;;;;;;5.43;2.50;;;;;;;21.93;35.96;101566.88;6079853;29;20237;-49
2021/05/20 14:34:09;;;;;;;2.67;2.22;;;;;;;21.46;37.76;101565.38;6092924;29;20695;-49
2021/05/20 14:37:32;;;;;;;3.55;3.20;;;;;;;21.87;37.33;101553.84;6084151;28;20659;-47
2021/05/20 14:40:52;;;;;;;3.17;2.45;;;;;;;21.51;37.64;101557.22;6074320;29;20365;-51
2021/05/20 14:44:13;;;;;;;2.00;1.80;;;;;;;21.08;38.16;101551.06;6067000;29;20245;-51
2021/05/20 14:47:38;;;;;;;3.55;2.17;;;;;;;20.55;39.18;101544.31;6080459;28;20236;-50
2021/05/20 14:51:02;;;;;;;2.30;2.10;;;;;;;20.52;39.19;101542.66;6095789;29;20236;-52
2021/05/20 14:54:24;;;;;;;1.58;1.48;;;;;;;19.96;40.67;101538.59;6076856;28;20243;-52
2021/05/20 15:05:08;;;;;;;3.42;2.50;;;;;;;19.13;41.70;101533.53;6052532;29;20252;-54
2021/05/20 15:08:29;;;;;;;2.63;2.35;;;;;;;18.47;43.62;101535.63;6075110;29;20252;-49
2021/05/20 15:11:55;;;;;;;2.50;2.25;;;;;;;18.39;44.94;101524.47;6088253;28;20233;-50
2021/05/20 15:15:18;;;;;;;2.95;2.75;;;;;;;19.04;42.82;101515.41;6084392;29;20237;-51
2021/05/20 15:18:38;;;;;;;2.53;2.22;;;;;;;19.72;41.57;101515.72;6082109;29;20244;-50
2021/05/20 15:21:59;;;;;;;4.20;2.78;;;;;;;19.52;42.01;101511.97;6083992;28;20232;-48
2021/05/20 15:25:20;;;;;;;3.40;3.10;;;;;;;19.71;42.25;101520.09;6042927;29;20232;-54
2021/05/20 15:28:42;;;;;;;2.42;2.17;;;;;;;19.88;44.38;101522.16;6088039;28;20239;-50
2021/05/20 15:32:04;;;;;;;4.55;2.92;;;;;;;19.92;43.11;101515.00;6088100;29;20629;-50
2021/05/20 15:35:25;;;;;;;3.35;2.38;;;;;;;20.20;42.62;101501.56;6083091;29;20232;-49
2021/05/20 15:38:46;;;;;;;2.40;2.20;;;;;;;20.36;39.73;101496.56;6094055;28;20345;-53
2021/05/20 15:42:07;;;;;;;4.25;2.75;;;;;;;20.61;38.99;101501.78;6087527;28;20718;-51
2021/05/20 15:45:29;;;;;;;6.55;2.75;;;;;;;20.98;39.65;101489.69;6080084;29;20248;-51
2021/05/20 15:52:33;;;;;;;3.17;2.60;;;;;;;21.75;38.03;101484.56;6087734;29;20243;-53